createdAt,value
2018-08-19T00:00:22.506Z,0
2018-08-19T00:00:48.641Z,0
2018-08-19T00:01:14.777Z,0
2018-08-19T00:01:40.913Z,0
2018-08-19T00:02:07.051Z,0
2018-08-19T00:02:33.216Z,0
2018-08-19T00:02:59.348Z,0
2018-08-19T00:03:25.494Z,0
2018-08-19T00:03:51.622Z,0
2018-08-19T00:04:17.761Z,0
2018-08-19T00:04:43.896Z,0
2018-08-19T00:05:10.027Z,0
2018-08-19T00:05:36.170Z,0
2018-08-19T00:06:02.301Z,0
2018-08-19T00:06:28.438Z,0
2018-08-19T00:06:54.605Z,0
2018-08-19T00:07:20.735Z,0
2018-08-19T00:07:46.866Z,0
2018-08-19T00:08:13.004Z,0
2018-08-19T00:08:39.132Z,0
2018-08-19T00:09:05.269Z,0
2018-08-19T00:09:31.417Z,0
2018-08-19T00:09:57.549Z,0
2018-08-19T00:10:23.685Z,0
2018-08-19T00:10:49.850Z,0
2018-08-19T00:11:15.988Z,0
2018-08-19T00:11:42.120Z,0
2018-08-19T00:12:08.284Z,0
2018-08-19T00:12:34.417Z,0
2018-08-19T00:13:00.552Z,0
2018-08-19T00:13:26.690Z,0
2018-08-19T00:13:52.829Z,0
2018-08-19T00:14:18.955Z,0
2018-08-19T00:14:45.114Z,0
2018-08-19T00:15:11.249Z,0
2018-08-19T00:15:37.379Z,0
2018-08-19T00:16:03.512Z,0
2018-08-19T00:16:29.643Z,0
2018-08-19T00:16:55.812Z,0
2018-08-19T00:17:21.945Z,0
2018-08-19T00:17:48.083Z,0
2018-08-19T00:18:14.224Z,0
2018-08-19T00:18:40.358Z,0
2018-08-19T00:19:06.490Z,0
2018-08-19T00:19:32.633Z,0
2018-08-19T00:19:58.765Z,0
2018-08-19T00:20:24.907Z,0
2018-08-19T00:20:51.044Z,0
2018-08-19T00:21:17.196Z,0
2018-08-19T00:21:43.384Z,0
2018-08-19T00:22:09.474Z,0
2018-08-19T00:22:35.609Z,0
2018-08-19T00:23:01.767Z,0
2018-08-19T00:23:27.906Z,0
2018-08-19T00:23:54.042Z,0
2018-08-19T00:24:20.179Z,0
2018-08-19T00:24:46.321Z,0
2018-08-19T00:25:12.446Z,0
2018-08-19T00:25:38.581Z,0
2018-08-19T00:26:04.723Z,0
2018-08-19T00:26:30.854Z,0
2018-08-19T00:26:56.991Z,0
2018-08-19T00:27:23.128Z,0
2018-08-19T00:27:49.269Z,0
2018-08-19T00:28:15.401Z,0
2018-08-19T00:28:41.534Z,0
2018-08-19T00:29:07.671Z,0
2018-08-19T00:29:33.805Z,0
2018-08-19T00:29:59.942Z,0
2018-08-19T00:30:26.103Z,0
2018-08-19T00:30:52.239Z,0
2018-08-19T00:31:18.374Z,0
2018-08-19T00:31:44.510Z,0
2018-08-19T00:32:10.645Z,0
2018-08-19T00:32:36.806Z,0
2018-08-19T00:33:02.970Z,0
2018-08-19T00:33:29.140Z,0
2018-08-19T00:33:55.281Z,0
2018-08-19T00:34:21.418Z,0
2018-08-19T00:34:47.551Z,0
2018-08-19T00:35:13.688Z,0
2018-08-19T00:35:39.832Z,0
2018-08-19T00:36:05.974Z,0
2018-08-19T00:36:32.108Z,0
2018-08-19T00:36:58.246Z,0
2018-08-19T00:37:24.378Z,0
2018-08-19T00:37:50.513Z,0
2018-08-19T00:38:16.647Z,0
2018-08-19T00:38:42.783Z,0
2018-08-19T00:39:08.950Z,0
2018-08-19T00:39:35.072Z,0
2018-08-19T00:40:01.215Z,0
2018-08-19T00:40:27.347Z,0
2018-08-19T00:40:53.483Z,0
2018-08-19T00:41:19.641Z,0
2018-08-19T00:41:45.779Z,0
2018-08-19T00:42:11.935Z,0
2018-08-19T00:42:38.066Z,0
2018-08-19T00:43:04.231Z,0
2018-08-19T00:43:30.369Z,0
2018-08-19T00:43:56.501Z,0
2018-08-19T00:44:22.634Z,0
2018-08-19T00:44:48.777Z,0
2018-08-19T00:45:14.916Z,0
2018-08-19T00:45:41.048Z,0
2018-08-19T00:46:07.184Z,0
2018-08-19T00:46:33.318Z,0
2018-08-19T00:46:59.448Z,0
2018-08-19T00:47:25.594Z,0
2018-08-19T00:47:51.750Z,0
2018-08-19T00:48:17.886Z,0
2018-08-19T00:48:44.025Z,0
2018-08-19T00:49:10.160Z,0
2018-08-19T00:49:36.286Z,0
2018-08-19T00:50:02.452Z,0
2018-08-19T00:50:28.605Z,0
2018-08-19T00:50:54.743Z,0
2018-08-19T00:51:20.905Z,0
2018-08-19T00:51:47.044Z,0
2018-08-19T00:52:13.185Z,0
2018-08-19T00:52:39.340Z,0
2018-08-19T00:53:05.503Z,0
2018-08-19T00:53:31.636Z,0
2018-08-19T00:53:57.763Z,0
2018-08-19T00:54:23.910Z,0
2018-08-19T00:54:50.041Z,0
2018-08-19T00:55:16.180Z,0
2018-08-19T00:55:42.317Z,0
2018-08-19T00:56:08.482Z,0
2018-08-19T00:56:34.613Z,0
2018-08-19T00:57:00.757Z,0
2018-08-19T00:57:26.892Z,0
2018-08-19T00:57:53.031Z,0
2018-08-19T00:58:19.169Z,0
2018-08-19T00:58:45.336Z,0
2018-08-19T00:59:11.488Z,0
2018-08-19T00:59:37.626Z,0
2018-08-19T01:00:03.767Z,0
2018-08-19T01:00:29.909Z,0
2018-08-19T01:00:56.048Z,0
2018-08-19T01:01:22.202Z,0
2018-08-19T01:01:48.377Z,0
2018-08-19T01:02:14.506Z,0
2018-08-19T01:02:40.665Z,0
2018-08-19T01:03:06.824Z,0
2018-08-19T01:03:32.964Z,0
2018-08-19T01:03:59.105Z,0
2018-08-19T01:04:25.258Z,0
2018-08-19T01:04:51.393Z,0
2018-08-19T01:05:17.524Z,0
2018-08-19T01:05:43.666Z,0
2018-08-19T01:06:09.799Z,0
2018-08-19T01:06:35.940Z,0
2018-08-19T01:07:02.105Z,0
2018-08-19T01:07:28.238Z,0
2018-08-19T01:07:54.375Z,0
2018-08-19T01:08:20.511Z,0
2018-08-19T01:08:46.652Z,0
2018-08-19T01:09:12.787Z,0
2018-08-19T01:09:38.916Z,0
2018-08-19T01:10:05.053Z,0
2018-08-19T01:10:31.213Z,0
2018-08-19T01:10:57.350Z,0
2018-08-19T01:11:23.485Z,0
2018-08-19T01:11:49.624Z,0
2018-08-19T01:12:15.753Z,0
2018-08-19T01:12:41.892Z,0
2018-08-19T01:13:08.021Z,0
2018-08-19T01:13:34.158Z,0
2018-08-19T01:14:00.311Z,0
2018-08-19T01:14:26.453Z,0
2018-08-19T01:14:52.590Z,0
2018-08-19T01:15:18.726Z,0
2018-08-19T01:15:44.891Z,0
2018-08-19T01:16:11.047Z,0
2018-08-19T01:16:37.183Z,0
2018-08-19T01:17:03.320Z,0
2018-08-19T01:17:29.458Z,0
2018-08-19T01:17:55.592Z,0
2018-08-19T01:18:21.720Z,0
2018-08-19T01:18:47.859Z,0
2018-08-19T01:19:13.998Z,0
2018-08-19T01:19:40.128Z,0
2018-08-19T01:20:06.290Z,0
2018-08-19T01:20:32.418Z,0
2018-08-19T01:20:58.558Z,0
2018-08-19T01:21:24.691Z,0
2018-08-19T01:21:50.833Z,0
2018-08-19T01:22:16.970Z,0
2018-08-19T01:22:43.102Z,0
2018-08-19T01:23:09.236Z,0
2018-08-19T01:23:35.400Z,0
2018-08-19T01:24:01.538Z,0
2018-08-19T01:24:27.676Z,0
2018-08-19T01:24:53.808Z,0
2018-08-19T01:25:19.945Z,0
2018-08-19T01:25:46.109Z,0
2018-08-19T01:26:12.231Z,0
2018-08-19T01:26:38.375Z,0
2018-08-19T01:27:04.523Z,0
2018-08-19T01:27:30.687Z,0
2018-08-19T01:27:56.826Z,0
2018-08-19T01:28:22.960Z,0
2018-08-19T01:28:49.093Z,0
2018-08-19T01:29:15.229Z,0
2018-08-19T01:29:41.373Z,0
2018-08-19T01:30:07.506Z,0
2018-08-19T01:30:33.646Z,0
2018-08-19T01:30:59.801Z,0
2018-08-19T01:31:25.960Z,0
2018-08-19T01:31:52.097Z,0
2018-08-19T01:32:18.231Z,0
2018-08-19T01:32:44.365Z,0
2018-08-19T01:33:10.524Z,0
2018-08-19T01:33:36.662Z,0
2018-08-19T01:34:02.823Z,0
2018-08-19T01:34:28.964Z,0
2018-08-19T01:34:55.095Z,0
2018-08-19T01:35:21.229Z,0
2018-08-19T01:35:47.355Z,0
2018-08-19T01:36:13.521Z,0
2018-08-19T01:36:39.651Z,0
2018-08-19T01:37:05.818Z,0
2018-08-19T01:37:31.959Z,0
2018-08-19T01:37:58.093Z,0
2018-08-19T01:38:24.235Z,0
2018-08-19T01:38:50.388Z,0
2018-08-19T01:39:16.519Z,0
2018-08-19T01:39:42.657Z,0
2018-08-19T01:40:08.792Z,0
2018-08-19T01:40:34.931Z,0
2018-08-19T01:41:01.068Z,0
2018-08-19T01:41:27.206Z,0
2018-08-19T01:41:53.349Z,0
2018-08-19T01:42:19.483Z,0
2018-08-19T01:42:45.619Z,0
2018-08-19T01:43:11.754Z,0
2018-08-19T01:43:37.913Z,0
2018-08-19T01:44:04.051Z,0
2018-08-19T01:44:30.185Z,0
2018-08-19T01:44:56.352Z,0
2018-08-19T01:45:22.504Z,0
2018-08-19T01:45:48.652Z,0
2018-08-19T01:46:14.790Z,0
2018-08-19T01:46:40.919Z,0
2018-08-19T01:47:07.085Z,0
2018-08-19T01:47:33.218Z,0
2018-08-19T01:47:59.355Z,0
2018-08-19T01:48:25.509Z,0
2018-08-19T01:48:51.645Z,0
2018-08-19T01:49:17.781Z,0
2018-08-19T01:49:43.915Z,0
2018-08-19T01:50:10.077Z,0
2018-08-19T01:50:36.232Z,0
2018-08-19T01:51:02.368Z,0
2018-08-19T01:51:28.504Z,0
2018-08-19T01:51:54.638Z,0
2018-08-19T01:52:20.797Z,0
2018-08-19T01:52:46.937Z,0
2018-08-19T01:53:13.100Z,0
2018-08-19T01:53:39.254Z,0
2018-08-19T01:54:05.387Z,0
2018-08-19T01:54:31.593Z,0
2018-08-19T01:54:57.730Z,0
2018-08-19T01:55:23.890Z,0
2018-08-19T01:55:50.020Z,0
2018-08-19T01:56:16.158Z,0
2018-08-19T01:56:42.316Z,0
2018-08-19T01:57:08.456Z,0
2018-08-19T01:57:34.608Z,0
2018-08-19T01:58:00.756Z,0
2018-08-19T01:58:26.882Z,0
2018-08-19T01:58:53.020Z,0
2018-08-19T01:59:19.162Z,0
2018-08-19T01:59:45.300Z,0
2018-08-19T02:00:11.453Z,0
2018-08-19T02:00:37.593Z,0
2018-08-19T02:01:03.732Z,0
2018-08-19T02:01:29.865Z,0
2018-08-19T02:01:55.998Z,0
2018-08-19T02:02:22.131Z,0
2018-08-19T02:02:48.271Z,0
2018-08-19T02:03:14.427Z,0
2018-08-19T02:03:40.557Z,0
2018-08-19T02:04:06.689Z,0
2018-08-19T02:04:32.852Z,0
2018-08-19T02:04:58.984Z,0
2018-08-19T02:05:25.119Z,0
2018-08-19T02:05:51.280Z,0
2018-08-19T02:06:17.422Z,0
2018-08-19T02:06:43.555Z,0
2018-08-19T02:07:09.692Z,0
2018-08-19T02:07:35.836Z,0
2018-08-19T02:08:01.984Z,0
2018-08-19T02:08:28.122Z,0
2018-08-19T02:08:54.254Z,0
2018-08-19T02:09:20.392Z,0
2018-08-19T02:09:46.533Z,0
2018-08-19T02:10:12.667Z,0
2018-08-19T02:10:38.803Z,0
2018-08-19T02:11:04.941Z,0
2018-08-19T02:11:31.074Z,0
2018-08-19T02:11:57.216Z,0
2018-08-19T02:12:23.353Z,0
2018-08-19T02:12:49.495Z,0
2018-08-19T02:13:15.632Z,0
2018-08-19T02:13:41.764Z,0
2018-08-19T02:14:07.901Z,0
2018-08-19T02:14:34.039Z,0
2018-08-19T02:15:00.231Z,0
2018-08-19T02:15:26.366Z,0
2018-08-19T02:15:52.495Z,0
2018-08-19T02:16:18.633Z,0
2018-08-19T02:16:44.795Z,0
2018-08-19T02:17:10.928Z,0
2018-08-19T02:17:37.064Z,0
2018-08-19T02:18:03.225Z,0
2018-08-19T02:18:29.355Z,0
2018-08-19T02:18:55.498Z,0
2018-08-19T02:19:21.661Z,0
2018-08-19T02:19:47.797Z,0
2018-08-19T02:20:13.936Z,0
2018-08-19T02:20:40.181Z,0
2018-08-19T02:21:06.235Z,0
2018-08-19T02:21:32.370Z,0
2018-08-19T02:21:58.530Z,0
2018-08-19T02:22:24.687Z,0
2018-08-19T02:22:50.823Z,0
2018-08-19T02:23:16.996Z,0
2018-08-19T02:23:43.157Z,0
2018-08-19T02:24:09.321Z,0
2018-08-19T02:24:35.465Z,0
2018-08-19T02:25:01.602Z,0
2018-08-19T02:25:27.735Z,0
2018-08-19T02:25:53.896Z,0
2018-08-19T02:26:20.038Z,0
2018-08-19T02:26:46.170Z,0
2018-08-19T02:27:12.306Z,0
2018-08-19T02:27:38.441Z,0
2018-08-19T02:28:04.600Z,0
2018-08-19T02:28:30.743Z,0
2018-08-19T02:28:56.885Z,0
2018-08-19T02:29:23.016Z,0
2018-08-19T02:29:49.154Z,0
2018-08-19T02:30:15.296Z,0
2018-08-19T02:30:41.430Z,0
2018-08-19T02:31:07.616Z,0
2018-08-19T02:31:33.796Z,0
2018-08-19T02:31:59.930Z,0
2018-08-19T02:32:26.063Z,0
2018-08-19T02:32:52.198Z,0
2018-08-19T02:33:18.368Z,0
2018-08-19T02:33:44.502Z,0
2018-08-19T02:34:10.636Z,0
2018-08-19T02:34:36.768Z,0
2018-08-19T02:35:02.946Z,0
2018-08-19T02:35:29.109Z,0
2018-08-19T02:35:55.248Z,0
2018-08-19T02:36:21.382Z,0
2018-08-19T02:36:47.518Z,0
2018-08-19T02:37:13.678Z,0
2018-08-19T02:37:39.806Z,0
2018-08-19T02:38:05.941Z,0
2018-08-19T02:38:32.101Z,0
2018-08-19T02:38:58.256Z,0
2018-08-19T02:39:24.388Z,0
2018-08-19T02:39:50.530Z,0
2018-08-19T02:40:16.669Z,0
2018-08-19T02:40:42.826Z,0
2018-08-19T02:41:08.960Z,0
2018-08-19T02:41:35.095Z,0
2018-08-19T02:42:01.228Z,0
2018-08-19T02:42:27.384Z,0
2018-08-19T02:42:53.517Z,0
2018-08-19T02:43:19.648Z,0
2018-08-19T02:43:45.781Z,0
2018-08-19T02:44:11.918Z,0
2018-08-19T02:44:38.054Z,0
2018-08-19T02:45:04.209Z,0
2018-08-19T02:45:30.346Z,0
2018-08-19T02:45:56.514Z,0
2018-08-19T02:46:22.647Z,0
2018-08-19T02:46:48.800Z,0
2018-08-19T02:47:14.933Z,0
2018-08-19T02:47:41.065Z,0
2018-08-19T02:48:07.229Z,0
2018-08-19T02:48:33.365Z,0
2018-08-19T02:48:59.503Z,0
2018-08-19T02:49:25.730Z,0
2018-08-19T02:49:51.859Z,0
2018-08-19T02:50:18.028Z,0
2018-08-19T02:50:44.187Z,0
2018-08-19T02:51:10.363Z,0
2018-08-19T02:51:36.497Z,0
2018-08-19T02:52:02.677Z,0
2018-08-19T02:52:28.805Z,0
2018-08-19T02:52:54.952Z,0
2018-08-19T02:53:21.096Z,0
2018-08-19T02:53:47.237Z,0
2018-08-19T02:54:13.387Z,0
2018-08-19T02:54:39.524Z,0
2018-08-19T02:55:05.703Z,0
2018-08-19T02:55:31.856Z,0
2018-08-19T02:55:57.990Z,0
2018-08-19T02:56:24.149Z,0
2018-08-19T02:56:50.324Z,0
2018-08-19T02:57:16.467Z,0
2018-08-19T02:57:42.629Z,0
2018-08-19T02:58:08.762Z,0
2018-08-19T02:58:34.891Z,0
2018-08-19T02:59:01.031Z,0
2018-08-19T02:59:27.212Z,0
2018-08-19T02:59:53.354Z,0
2018-08-19T03:00:19.490Z,0
2018-08-19T03:00:45.628Z,0
2018-08-19T03:01:11.815Z,0
2018-08-19T03:01:37.956Z,0
2018-08-19T03:02:04.115Z,0
2018-08-19T03:02:30.292Z,0
2018-08-19T03:02:56.468Z,0
2018-08-19T03:03:22.602Z,0
2018-08-19T03:03:48.737Z,0
2018-08-19T03:04:14.874Z,0
2018-08-19T03:04:41.007Z,0
2018-08-19T03:05:07.147Z,0
2018-08-19T03:05:33.310Z,0
2018-08-19T03:05:59.442Z,0
2018-08-19T03:06:25.580Z,0
2018-08-19T03:06:51.708Z,0
2018-08-19T03:07:17.841Z,0
2018-08-19T03:07:43.975Z,0
2018-08-19T03:08:10.118Z,0
2018-08-19T03:08:36.251Z,0
2018-08-19T03:09:02.435Z,0
2018-08-19T03:09:28.572Z,0
2018-08-19T03:09:54.734Z,0
2018-08-19T03:10:20.869Z,0
2018-08-19T03:10:46.998Z,0
2018-08-19T03:11:13.166Z,0
2018-08-19T03:11:39.302Z,0
2018-08-19T03:12:05.439Z,0
2018-08-19T03:12:31.605Z,0
2018-08-19T03:12:57.732Z,0
2018-08-19T03:13:23.886Z,0
2018-08-19T03:13:50.029Z,0
2018-08-19T03:14:16.181Z,0
2018-08-19T03:14:42.317Z,0
2018-08-19T03:15:08.562Z,0
2018-08-19T03:15:34.629Z,0
2018-08-19T03:16:00.778Z,0
2018-08-19T03:16:26.904Z,0
2018-08-19T03:16:53.040Z,0
2018-08-19T03:17:19.194Z,0
2018-08-19T03:17:45.323Z,0
2018-08-19T03:18:11.488Z,0
2018-08-19T03:18:37.628Z,0
2018-08-19T03:19:03.762Z,0
2018-08-19T03:19:29.889Z,0
2018-08-19T03:19:56.032Z,0
2018-08-19T03:20:22.164Z,0
2018-08-19T03:20:48.329Z,0
2018-08-19T03:21:14.464Z,0
2018-08-19T03:21:40.594Z,0
2018-08-19T03:22:06.723Z,0
2018-08-19T03:22:32.857Z,0
2018-08-19T03:22:58.990Z,0
2018-08-19T03:23:25.121Z,0
2018-08-19T03:23:51.277Z,0
2018-08-19T03:24:17.441Z,0
2018-08-19T03:24:43.580Z,0
2018-08-19T03:25:09.718Z,0
2018-08-19T03:25:35.854Z,0
2018-08-19T03:26:02.036Z,0
2018-08-19T03:26:28.166Z,0
2018-08-19T03:26:54.306Z,0
2018-08-19T03:27:20.467Z,0
2018-08-19T03:27:46.628Z,0
2018-08-19T03:28:12.762Z,0
2018-08-19T03:28:38.926Z,0
2018-08-19T03:29:05.070Z,0
2018-08-19T03:29:31.206Z,0
2018-08-19T03:29:57.344Z,0
2018-08-19T03:30:23.499Z,0
2018-08-19T03:30:49.682Z,0
2018-08-19T03:31:15.877Z,0
2018-08-19T03:31:42.033Z,0
2018-08-19T03:32:08.197Z,0
2018-08-19T03:32:34.330Z,0
2018-08-19T03:33:00.475Z,0
2018-08-19T03:33:26.650Z,0
2018-08-19T03:33:52.786Z,0
2018-08-19T03:34:18.978Z,0
2018-08-19T03:34:45.135Z,0
2018-08-19T03:35:11.297Z,0
2018-08-19T03:35:37.430Z,0
2018-08-19T03:36:03.591Z,0
2018-08-19T03:36:29.746Z,0
2018-08-19T03:36:55.883Z,0
2018-08-19T03:37:22.020Z,0
2018-08-19T03:37:48.183Z,0
2018-08-19T03:38:14.309Z,0
2018-08-19T03:38:40.443Z,0
2018-08-19T03:39:06.580Z,0
2018-08-19T03:39:32.708Z,0
2018-08-19T03:39:58.839Z,0
2018-08-19T03:40:24.973Z,0
2018-08-19T03:40:51.128Z,0
2018-08-19T03:41:17.261Z,0
2018-08-19T03:41:43.420Z,0
2018-08-19T03:42:09.577Z,0
2018-08-19T03:42:35.737Z,0
2018-08-19T03:43:01.875Z,0
2018-08-19T03:43:28.006Z,0
2018-08-19T03:43:54.135Z,0
2018-08-19T03:44:20.277Z,0
2018-08-19T03:44:46.433Z,0
2018-08-19T03:45:12.563Z,0
2018-08-19T03:45:38.696Z,0
2018-08-19T03:46:04.862Z,0
2018-08-19T03:46:31.017Z,0
2018-08-19T03:46:57.149Z,0
2018-08-19T03:47:23.290Z,0
2018-08-19T03:47:49.453Z,0
2018-08-19T03:48:15.590Z,0
2018-08-19T03:48:41.723Z,0
2018-08-19T03:49:07.893Z,0
2018-08-19T03:49:34.053Z,0
2018-08-19T03:50:00.180Z,0
2018-08-19T03:50:26.320Z,0
2018-08-19T03:50:52.483Z,0
2018-08-19T03:51:18.641Z,0
2018-08-19T03:51:44.799Z,0
2018-08-19T03:52:10.934Z,0
2018-08-19T03:52:37.097Z,0
2018-08-19T03:53:03.236Z,0
2018-08-19T03:53:29.370Z,0
2018-08-19T03:53:55.493Z,0
2018-08-19T03:54:21.629Z,0
2018-08-19T03:54:47.795Z,0
2018-08-19T03:55:13.948Z,0
2018-08-19T03:55:40.110Z,0
2018-08-19T03:56:06.252Z,0
2018-08-19T03:56:32.386Z,0
2018-08-19T03:56:58.518Z,0
2018-08-19T03:57:24.659Z,0
2018-08-19T03:57:50.810Z,0
2018-08-19T03:58:16.974Z,0
2018-08-19T03:58:43.132Z,0
2018-08-19T03:59:09.293Z,0
2018-08-19T03:59:35.431Z,0
2018-08-19T04:00:01.584Z,0
2018-08-19T04:00:27.716Z,0
2018-08-19T04:00:53.875Z,0
2018-08-19T04:01:20.006Z,0
2018-08-19T04:01:46.144Z,0
2018-08-19T04:02:12.330Z,0
2018-08-19T04:02:38.464Z,0
2018-08-19T04:03:04.599Z,0
2018-08-19T04:03:30.739Z,0
2018-08-19T04:03:56.879Z,0
2018-08-19T04:04:23.015Z,0
2018-08-19T04:04:49.183Z,0
2018-08-19T04:05:15.321Z,0
2018-08-19T04:05:41.451Z,0
2018-08-19T04:06:07.605Z,0
2018-08-19T04:06:33.737Z,0
2018-08-19T04:06:59.897Z,0
2018-08-19T04:07:26.033Z,0
2018-08-19T04:07:52.173Z,0
2018-08-19T04:08:18.338Z,0
2018-08-19T04:08:44.466Z,0
2018-08-19T04:09:10.650Z,0
2018-08-19T04:09:36.792Z,0
2018-08-19T04:10:02.949Z,0
2018-08-19T04:10:29.087Z,0
2018-08-19T04:10:55.225Z,0
2018-08-19T04:11:21.411Z,0
2018-08-19T04:11:47.569Z,0
2018-08-19T04:12:13.733Z,0
2018-08-19T04:12:39.907Z,0
2018-08-19T04:13:06.030Z,0
2018-08-19T04:13:32.163Z,5
2018-08-19T04:13:58.305Z,5
2018-08-19T04:14:24.448Z,5
2018-08-19T04:14:50.583Z,5
2018-08-19T04:15:16.715Z,5
2018-08-19T04:15:42.878Z,5
2018-08-19T04:16:09.017Z,5
2018-08-19T04:16:35.166Z,5
2018-08-19T04:17:01.352Z,5
2018-08-19T04:17:27.471Z,5
2018-08-19T04:17:53.634Z,5
2018-08-19T04:18:19.795Z,5
2018-08-19T04:18:45.951Z,5
2018-08-19T04:19:12.108Z,5
2018-08-19T04:19:38.247Z,5
2018-08-19T04:20:04.433Z,5
2018-08-19T04:20:30.591Z,5
2018-08-19T04:20:56.749Z,5
2018-08-19T04:21:22.884Z,10
2018-08-19T04:21:49.051Z,10
2018-08-19T04:22:15.187Z,10
2018-08-19T04:22:41.337Z,10
2018-08-19T04:23:07.498Z,10
2018-08-19T04:23:33.756Z,10
2018-08-19T04:23:59.802Z,10
2018-08-19T04:24:25.964Z,10
2018-08-19T04:24:52.099Z,10
2018-08-19T04:25:18.246Z,10
2018-08-19T04:25:44.370Z,10
2018-08-19T04:26:10.506Z,15
2018-08-19T04:26:36.667Z,15
2018-08-19T04:27:02.824Z,15
2018-08-19T04:27:28.963Z,15
2018-08-19T04:27:55.118Z,15
2018-08-19T04:28:21.280Z,15
2018-08-19T04:28:47.415Z,15
2018-08-19T04:29:13.546Z,15
2018-08-19T04:29:39.722Z,15
2018-08-19T04:30:05.859Z,20
2018-08-19T04:30:32.015Z,20
2018-08-19T04:30:58.156Z,20
2018-08-19T04:31:24.292Z,20
2018-08-19T04:31:50.423Z,20
2018-08-19T04:32:16.557Z,20
2018-08-19T04:32:42.697Z,20
2018-08-19T04:33:08.856Z,25
2018-08-19T04:33:34.988Z,25
2018-08-19T04:34:01.145Z,25
2018-08-19T04:34:27.285Z,25
2018-08-19T04:34:53.420Z,25
2018-08-19T04:35:19.555Z,25
2018-08-19T04:35:45.752Z,25
2018-08-19T04:36:11.892Z,30
2018-08-19T04:36:38.034Z,30
2018-08-19T04:37:04.176Z,30
2018-08-19T04:37:30.312Z,30
2018-08-19T04:37:56.455Z,30
2018-08-19T04:38:22.585Z,30
2018-08-19T04:38:48.752Z,30
2018-08-19T04:39:14.908Z,35
2018-08-19T04:39:41.135Z,35
2018-08-19T04:40:07.245Z,35
2018-08-19T04:40:33.409Z,35
2018-08-19T04:40:59.549Z,35
2018-08-19T04:41:25.728Z,40
2018-08-19T04:41:51.863Z,40
2018-08-19T04:42:18.006Z,40
2018-08-19T04:42:44.135Z,40
2018-08-19T04:43:10.273Z,40
2018-08-19T04:43:36.419Z,40
2018-08-19T04:44:02.577Z,45
2018-08-19T04:44:28.711Z,45
2018-08-19T04:44:54.890Z,45
2018-08-19T04:45:21.028Z,45
2018-08-19T04:45:47.156Z,45
2018-08-19T04:46:13.295Z,45
2018-08-19T04:46:39.437Z,50
2018-08-19T04:47:05.567Z,50
2018-08-19T04:47:31.702Z,50
2018-08-19T04:47:57.855Z,50
2018-08-19T04:48:23.997Z,50
2018-08-19T04:48:50.152Z,55
2018-08-19T04:49:16.306Z,55
2018-08-19T04:49:42.474Z,55
2018-08-19T04:50:08.661Z,55
2018-08-19T04:50:34.793Z,55
2018-08-19T04:51:00.933Z,60
2018-08-19T04:51:27.098Z,60
2018-08-19T04:51:53.243Z,60
2018-08-19T04:52:19.381Z,60
2018-08-19T04:52:45.515Z,60
2018-08-19T04:53:11.651Z,65
2018-08-19T04:53:37.789Z,65
2018-08-19T04:54:03.923Z,65
2018-08-19T04:54:30.086Z,65
2018-08-19T04:54:56.224Z,65
2018-08-19T04:55:22.383Z,70
2018-08-19T04:55:48.513Z,70
2018-08-19T04:56:14.680Z,70
2018-08-19T04:56:40.850Z,70
2018-08-19T04:57:06.973Z,70
2018-08-19T04:57:33.141Z,70
2018-08-19T04:57:59.304Z,70
2018-08-19T04:58:25.433Z,70
2018-08-19T04:58:51.599Z,75
2018-08-19T04:59:17.779Z,75
2018-08-19T04:59:43.915Z,80
2018-08-19T05:00:10.050Z,80
2018-08-19T05:00:36.213Z,80
2018-08-19T05:01:02.358Z,80
2018-08-19T05:01:28.509Z,80
2018-08-19T05:01:54.663Z,80
2018-08-19T05:02:21.031Z,80
2018-08-19T05:02:46.975Z,80
2018-08-19T05:03:13.114Z,80
2018-08-19T05:03:39.253Z,85
2018-08-19T05:04:05.431Z,85
2018-08-19T05:04:31.574Z,85
2018-08-19T05:04:57.707Z,85
2018-08-19T05:05:23.862Z,85
2018-08-19T05:05:49.996Z,90
2018-08-19T05:06:16.153Z,90
2018-08-19T05:06:42.310Z,90
2018-08-19T05:07:08.444Z,90
2018-08-19T05:07:34.587Z,95
2018-08-19T05:08:00.767Z,95
2018-08-19T05:08:27.121Z,95
2018-08-19T05:08:53.042Z,95
2018-08-19T05:09:19.179Z,100
2018-08-19T05:09:45.315Z,100
2018-08-19T05:10:11.455Z,100
2018-08-19T05:10:37.586Z,100
2018-08-19T05:11:03.744Z,105
2018-08-19T05:11:29.906Z,105
2018-08-19T05:11:56.047Z,105
2018-08-19T05:12:22.198Z,105
2018-08-19T05:12:48.341Z,105
2018-08-19T05:13:14.502Z,110
2018-08-19T05:13:40.634Z,110
2018-08-19T05:14:06.795Z,110
2018-08-19T05:14:32.966Z,110
2018-08-19T05:14:59.101Z,115
2018-08-19T05:15:25.279Z,115
2018-08-19T05:15:51.370Z,115
2018-08-19T05:16:17.509Z,115
2018-08-19T05:16:43.643Z,120
2018-08-19T05:17:09.780Z,120
2018-08-19T05:17:35.914Z,120
2018-08-19T05:18:02.050Z,120
2018-08-19T05:18:28.189Z,125
2018-08-19T05:18:54.357Z,125
2018-08-19T05:19:20.483Z,125
2018-08-19T05:19:46.642Z,125
2018-08-19T05:20:12.804Z,130
2018-08-19T05:20:38.934Z,130
2018-08-19T05:21:05.066Z,130
2018-08-19T05:21:31.203Z,130
2018-08-19T05:21:57.335Z,135
2018-08-19T05:22:23.525Z,135
2018-08-19T05:22:49.691Z,135
2018-08-19T05:23:15.853Z,135
2018-08-19T05:23:41.987Z,140
2018-08-19T05:24:08.126Z,140
2018-08-19T05:24:34.264Z,140
2018-08-19T05:25:00.397Z,140
2018-08-19T05:25:26.536Z,140
2018-08-19T05:25:52.675Z,145
2018-08-19T05:26:18.818Z,145
2018-08-19T05:26:44.975Z,145
2018-08-19T05:27:11.114Z,150
2018-08-19T05:27:37.272Z,150
2018-08-19T05:28:03.413Z,150
2018-08-19T05:28:29.640Z,150
2018-08-19T05:28:55.706Z,155
2018-08-19T05:29:21.837Z,155
2018-08-19T05:29:48.000Z,155
2018-08-19T05:30:14.141Z,155
2018-08-19T05:30:40.273Z,160
2018-08-19T05:31:06.406Z,160
2018-08-19T05:31:32.568Z,160
2018-08-19T05:31:58.679Z,165
2018-08-19T05:32:24.822Z,165
2018-08-19T05:32:50.956Z,165
2018-08-19T05:33:17.112Z,165
2018-08-19T05:33:43.254Z,170
2018-08-19T05:34:09.387Z,170
2018-08-19T05:34:35.517Z,170
2018-08-19T05:35:01.658Z,170
2018-08-19T05:35:27.806Z,175
2018-08-19T05:35:53.942Z,175
2018-08-19T05:36:20.078Z,180
2018-08-19T05:36:46.209Z,175
2018-08-19T05:37:12.346Z,180
2018-08-19T05:37:38.500Z,180
2018-08-19T05:38:04.666Z,180
2018-08-19T05:38:30.793Z,180
2018-08-19T05:38:56.924Z,180
2018-08-19T05:39:23.065Z,180
2018-08-19T05:39:49.203Z,185
2018-08-19T05:40:15.336Z,185
2018-08-19T05:40:41.478Z,185
2018-08-19T05:41:07.613Z,190
2018-08-19T05:41:33.752Z,190
2018-08-19T05:41:59.882Z,195
2018-08-19T05:42:26.041Z,200
2018-08-19T05:42:52.198Z,200
2018-08-19T05:43:18.352Z,205
2018-08-19T05:43:44.484Z,205
2018-08-19T05:44:10.614Z,210
2018-08-19T05:44:36.780Z,215
2018-08-19T05:45:02.938Z,215
2018-08-19T05:45:29.071Z,210
2018-08-19T05:45:55.204Z,215
2018-08-19T05:46:21.342Z,220
2018-08-19T05:46:47.471Z,220
2018-08-19T05:47:13.687Z,225
2018-08-19T05:47:39.753Z,230
2018-08-19T05:48:05.878Z,235
2018-08-19T05:48:32.061Z,245
2018-08-19T05:48:58.247Z,250
2018-08-19T05:49:24.388Z,250
2018-08-19T05:49:50.543Z,255
2018-08-19T05:50:16.680Z,260
2018-08-19T05:50:42.818Z,265
2018-08-19T05:51:08.981Z,275
2018-08-19T05:51:35.110Z,275
2018-08-19T05:52:01.249Z,280
2018-08-19T05:52:27.401Z,280
2018-08-19T05:52:53.540Z,285
2018-08-19T05:53:19.696Z,280
2018-08-19T05:53:45.857Z,280
2018-08-19T05:54:11.992Z,280
2018-08-19T05:54:38.127Z,275
2018-08-19T05:55:04.265Z,275
2018-08-19T05:55:30.437Z,275
2018-08-19T05:55:56.560Z,275
2018-08-19T05:56:22.693Z,275
2018-08-19T05:56:48.831Z,270
2018-08-19T05:57:14.963Z,270
2018-08-19T05:57:41.101Z,265
2018-08-19T05:58:07.265Z,260
2018-08-19T05:58:33.402Z,260
2018-08-19T05:58:59.542Z,250
2018-08-19T05:59:25.676Z,250
2018-08-19T05:59:51.835Z,250
2018-08-19T06:00:17.972Z,245
2018-08-19T06:00:44.119Z,245
2018-08-19T06:01:10.306Z,245
2018-08-19T06:01:36.411Z,250
2018-08-19T06:02:02.543Z,260
2018-08-19T06:02:28.680Z,260
2018-08-19T06:02:54.813Z,265
2018-08-19T06:03:20.949Z,270
2018-08-19T06:03:47.091Z,275
2018-08-19T06:04:13.259Z,280
2018-08-19T06:04:39.367Z,280
2018-08-19T06:05:05.499Z,280
2018-08-19T06:05:31.639Z,280
2018-08-19T06:05:57.770Z,280
2018-08-19T06:06:23.917Z,285
2018-08-19T06:06:50.051Z,280
2018-08-19T06:07:16.189Z,280
2018-08-19T06:07:42.513Z,280
2018-08-19T06:08:08.456Z,285
2018-08-19T06:08:34.590Z,280
2018-08-19T06:09:00.748Z,280
2018-08-19T06:09:26.883Z,280
2018-08-19T06:09:53.021Z,280
2018-08-19T06:10:19.164Z,280
2018-08-19T06:10:45.340Z,280
2018-08-19T06:11:11.525Z,280
2018-08-19T06:11:37.663Z,285
2018-08-19T06:12:03.798Z,290
2018-08-19T06:12:29.931Z,290
2018-08-19T06:12:56.071Z,295
2018-08-19T06:13:22.202Z,300
2018-08-19T06:13:48.335Z,305
2018-08-19T06:14:14.471Z,305
2018-08-19T06:14:40.607Z,305
2018-08-19T06:15:06.765Z,315
2018-08-19T06:15:32.905Z,305
2018-08-19T06:15:59.243Z,305
2018-08-19T06:16:25.193Z,310
2018-08-19T06:16:51.325Z,315
2018-08-19T06:17:17.457Z,320
2018-08-19T06:17:43.599Z,325
2018-08-19T06:18:09.749Z,330
2018-08-19T06:18:35.886Z,330
2018-08-19T06:19:02.043Z,330
2018-08-19T06:19:28.186Z,330
2018-08-19T06:19:54.314Z,330